sensor_id;sensor_type;location;lat;lon;timestamp;P1;durP1;ratioP1;P2;durP2;ratioP2
52974;SDS011;38839;45.186;5.720;2022-09-17T00:01:05;2.15;;;1.73;;
52974;SDS011;38839;45.186;5.720;2022-09-17T00:03:32;5.65;;;1.70;;
52974;SDS011;38839;45.186;5.720;2022-09-17T00:06:04;3.13;;;1.50;;
52974;SDS011;38839;45.186;5.720;2022-09-17T00:08:31;1.88;;;1.45;;
52974;SDS011;38839;45.186;5.720;2022-09-17T00:11:04;1.83;;;1.50;;
52974;SDS011;38839;45.186;5.720;2022-09-17T00:13:34;2.35;;;1.65;;
52974;SDS011;38839;45.186;5.720;2022-09-17T00:16:00;3.88;;;1.80;;
52974;SDS011;38839;45.186;5.720;2022-09-17T00:18:25;3.38;;;1.83;;
52974;SDS011;38839;45.186;5.720;2022-09-17T00:20:51;1.83;;;1.30;;
52974;SDS011;38839;45.186;5.720;2022-09-17T00:23:17;2.05;;;1.33;;
52974;SDS011;38839;45.186;5.720;2022-09-17T00:25:43;3.72;;;1.90;;
52974;SDS011;38839;45.186;5.720;2022-09-17T00:28:10;2.47;;;1.60;;
52974;SDS011;38839;45.186;5.720;2022-09-17T00:30:41;3.95;;;1.40;;
52974;SDS011;38839;45.186;5.720;2022-09-17T00:33:09;1.45;;;1.20;;
52974;SDS011;38839;45.186;5.720;2022-09-17T00:35:36;2.30;;;1.40;;
52974;SDS011;38839;45.186;5.720;2022-09-17T00:38:02;1.90;;;1.55;;
52974;SDS011;38839;45.186;5.720;2022-09-17T00:40:28;1.55;;;1.45;;
52974;SDS011;38839;45.186;5.720;2022-09-17T00:42:53;1.98;;;1.60;;
52974;SDS011;38839;45.186;5.720;2022-09-17T00:45:19;1.55;;;1.20;;
52974;SDS011;38839;45.186;5.720;2022-09-17T00:47:45;3.47;;;1.40;;
52974;SDS011;38839;45.186;5.720;2022-09-17T00:50:16;3.15;;;1.42;;
52974;SDS011;38839;45.186;5.720;2022-09-17T00:53:13;3.10;;;1.35;;
52974;SDS011;38839;45.186;5.720;2022-09-17T00:58:29;1.70;;;1.13;;
52974;SDS011;38839;45.186;5.720;2022-09-17T01:00:57;3.67;;;1.48;;
52974;SDS011;38839;45.186;5.720;2022-09-17T01:03:24;3.60;;;1.23;;
52974;SDS011;38839;45.186;5.720;2022-09-17T01:08:39;1.60;;;1.05;;
52974;SDS011;38839;45.186;5.720;2022-09-17T01:11:16;1.98;;;1.15;;
52974;SDS011;38839;45.186;5.720;2022-09-17T01:16:44;1.45;;;1.30;;
52974;SDS011;38839;45.186;5.720;2022-09-17T01:25:22;2.83;;;1.05;;
52974;SDS011;38839;45.186;5.720;2022-09-17T01:31:02;2.88;;;1.08;;
52974;SDS011;38839;45.186;5.720;2022-09-17T01:34:08;1.90;;;0.90;;
52974;SDS011;38839;45.186;5.720;2022-09-17T01:37:03;2.72;;;0.93;;
52974;SDS011;38839;45.186;5.720;2022-09-17T01:39:55;1.63;;;1.30;;
52974;SDS011;38839;45.186;5.720;2022-09-17T01:45:07;1.23;;;1.00;;
52974;SDS011;38839;45.186;5.720;2022-09-17T01:47:55;1.63;;;0.95;;
52974;SDS011;38839;45.186;5.720;2022-09-17T01:50:26;1.92;;;1.02;;
52974;SDS011;38839;45.186;5.720;2022-09-17T01:52:55;1.38;;;0.93;;
52974;SDS011;38839;45.186;5.720;2022-09-17T01:55:29;1.60;;;1.05;;
52974;SDS011;38839;45.186;5.720;2022-09-17T01:58:01;1.30;;;0.90;;
52974;SDS011;38839;45.186;5.720;2022-09-17T02:00:32;2.45;;;0.93;;
52974;SDS011;38839;45.186;5.720;2022-09-17T02:03:03;1.90;;;1.13;;
52974;SDS011;38839;45.186;5.720;2022-09-17T02:05:41;0.82;;;0.82;;
52974;SDS011;38839;45.186;5.720;2022-09-17T02:08:34;1.80;;;0.95;;
52974;SDS011;38839;45.186;5.720;2022-09-17T02:11:05;3.90;;;1.20;;
52974;SDS011;38839;45.186;5.720;2022-09-17T02:13:44;4.00;;;1.00;;
52974;SDS011;38839;45.186;5.720;2022-09-17T02:16:15;2.00;;;0.90;;
52974;SDS011;38839;45.186;5.720;2022-09-17T02:18:49;2.15;;;1.55;;
52974;SDS011;38839;45.186;5.720;2022-09-17T02:24:11;2.90;;;1.08;;
52974;SDS011;38839;45.186;5.720;2022-09-17T02:29:40;1.63;;;0.95;;
52974;SDS011;38839;45.186;5.720;2022-09-17T02:32:07;1.92;;;1.02;;
52974;SDS011;38839;45.186;5.720;2022-09-17T02:34:33;1.45;;;0.90;;
52974;SDS011;38839;45.186;5.720;2022-09-17T02:36:59;0.82;;;0.80;;
52974;SDS011;38839;45.186;5.720;2022-09-17T02:39:25;0.82;;;0.80;;
52974;SDS011;38839;45.186;5.720;2022-09-17T02:44:55;2.38;;;0.73;;
52974;SDS011;38839;45.186;5.720;2022-09-17T02:51:04;2.05;;;1.00;;
52974;SDS011;38839;45.186;5.720;2022-09-17T02:53:51;2.25;;;0.90;;
52974;SDS011;38839;45.186;5.720;2022-09-17T02:59:20;2.00;;;1.00;;
52974;SDS011;38839;45.186;5.720;2022-09-17T03:04:32;4.10;;;0.80;;
52974;SDS011;38839;45.186;5.720;2022-09-17T03:06:59;2.22;;;1.20;;
52974;SDS011;38839;45.186;5.720;2022-09-17T03:09:32;2.47;;;1.10;;
52974;SDS011;38839;45.186;5.720;2022-09-17T03:11:58;1.85;;;1.15;;
52974;SDS011;38839;45.186;5.720;2022-09-17T03:14:23;1.70;;;0.82;;
52974;SDS011;38839;45.186;5.720;2022-09-17T03:16:49;1.00;;;0.90;;
52974;SDS011;38839;45.186;5.720;2022-09-17T03:19:14;1.58;;;0.77;;
52974;SDS011;38839;45.186;5.720;2022-09-17T03:21:40;1.25;;;0.93;;
52974;SDS011;38839;45.186;5.720;2022-09-17T03:24:05;3.85;;;1.00;;
52974;SDS011;38839;45.186;5.720;2022-09-17T03:26:30;1.60;;;0.85;;
52974;SDS011;38839;45.186;5.720;2022-09-17T03:28:56;1.85;;;0.90;;
52974;SDS011;38839;45.186;5.720;2022-09-17T03:31:22;2.83;;;1.05;;
52974;SDS011;38839;45.186;5.720;2022-09-17T03:33:48;1.35;;;0.90;;
52974;SDS011;38839;45.186;5.720;2022-09-17T03:36:14;1.60;;;0.90;;
52974;SDS011;38839;45.186;5.720;2022-09-17T03:38:39;1.00;;;0.90;;
52974;SDS011;38839;45.186;5.720;2022-09-17T03:41:05;0.80;;;0.80;;
52974;SDS011;38839;45.186;5.720;2022-09-17T03:43:31;0.80;;;0.80;;
52974;SDS011;38839;45.186;5.720;2022-09-17T03:45:57;1.20;;;0.88;;
52974;SDS011;38839;45.186;5.720;2022-09-17T03:48:24;1.25;;;0.80;;
52974;SDS011;38839;45.186;5.720;2022-09-17T03:50:50;2.42;;;0.80;;
52974;SDS011;38839;45.186;5.720;2022-09-17T03:53:15;1.35;;;0.70;;
52974;SDS011;38839;45.186;5.720;2022-09-17T03:55:41;1.27;;;1.00;;
52974;SDS011;38839;45.186;5.720;2022-09-17T03:58:06;2.67;;;0.93;;
52974;SDS011;38839;45.186;5.720;2022-09-17T04:00:32;2.15;;;1.00;;
52974;SDS011;38839;45.186;5.720;2022-09-17T04:03:01;1.33;;;0.90;;
52974;SDS011;38839;45.186;5.720;2022-09-17T04:05:27;4.40;;;0.90;;
52974;SDS011;38839;45.186;5.720;2022-09-17T04:07:52;1.40;;;0.80;;
52974;SDS011;38839;45.186;5.720;2022-09-17T04:10:18;4.07;;;1.20;;
52974;SDS011;38839;45.186;5.720;2022-09-17T04:12:43;3.00;;;0.90;;
52974;SDS011;38839;45.186;5.720;2022-09-17T04:15:08;0.95;;;0.90;;
52974;SDS011;38839;45.186;5.720;2022-09-17T04:17:34;0.80;;;0.80;;
52974;SDS011;38839;45.186;5.720;2022-09-17T04:20:00;1.52;;;0.90;;
52974;SDS011;38839;45.186;5.720;2022-09-17T04:22:25;1.88;;;0.98;;
52974;SDS011;38839;45.186;5.720;2022-09-17T04:24:51;1.05;;;0.80;;
52974;SDS011;38839;45.186;5.720;2022-09-17T04:27:16;2.15;;;0.70;;
52974;SDS011;38839;45.186;5.720;2022-09-17T04:29:42;1.05;;;0.75;;
52974;SDS011;38839;45.186;5.720;2022-09-17T04:32:07;2.38;;;0.80;;
52974;SDS011;38839;45.186;5.720;2022-09-17T04:34:33;3.38;;;0.90;;
52974;SDS011;38839;45.186;5.720;2022-09-17T04:36:58;3.00;;;1.00;;
52974;SDS011;38839;45.186;5.720;2022-09-17T04:39:24;1.13;;;1.00;;
52974;SDS011;38839;45.186;5.720;2022-09-17T04:41:49;0.73;;;0.70;;
52974;SDS011;38839;45.186;5.720;2022-09-17T04:44:14;1.25;;;0.70;;
52974;SDS011;38839;45.186;5.720;2022-09-17T04:46:40;1.88;;;0.82;;
52974;SDS011;38839;45.186;5.720;2022-09-17T04:49:05;4.22;;;1.10;;
52974;SDS011;38839;45.186;5.720;2022-09-17T04:51:31;2.30;;;0.90;;
52974;SDS011;38839;45.186;5.720;2022-09-17T04:53:56;1.92;;;0.90;;
52974;SDS011;38839;45.186;5.720;2022-09-17T04:56:22;2.85;;;0.95;;
52974;SDS011;38839;45.186;5.720;2022-09-17T04:58:47;1.90;;;0.90;;
52974;SDS011;38839;45.186;5.720;2022-09-17T05:01:13;2.25;;;0.90;;
52974;SDS011;38839;45.186;5.720;2022-09-17T05:03:39;2.83;;;1.00;;
52974;SDS011;38839;45.186;5.720;2022-09-17T05:06:04;1.73;;;0.80;;
52974;SDS011;38839;45.186;5.720;2022-09-17T05:08:30;1.80;;;1.00;;
52974;SDS011;38839;45.186;5.720;2022-09-17T05:10:55;0.88;;;0.73;;
52974;SDS011;38839;45.186;5.720;2022-09-17T05:13:21;1.95;;;0.80;;
52974;SDS011;38839;45.186;5.720;2022-09-17T05:15:46;1.42;;;1.10;;
52974;SDS011;38839;45.186;5.720;2022-09-17T05:18:13;2.58;;;1.00;;
52974;SDS011;38839;45.186;5.720;2022-09-17T05:20:38;2.75;;;0.90;;
52974;SDS011;38839;45.186;5.720;2022-09-17T05:23:04;3.95;;;1.10;;
52974;SDS011;38839;45.186;5.720;2022-09-17T05:25:29;1.17;;;1.08;;
52974;SDS011;38839;45.186;5.720;2022-09-17T05:27:55;2.83;;;1.02;;
52974;SDS011;38839;45.186;5.720;2022-09-17T05:30:20;1.92;;;0.82;;
52974;SDS011;38839;45.186;5.720;2022-09-17T05:32:46;1.35;;;0.82;;
52974;SDS011;38839;45.186;5.720;2022-09-17T05:35:12;3.05;;;1.00;;
52974;SDS011;38839;45.186;5.720;2022-09-17T05:37:37;2.28;;;1.27;;
52974;SDS011;38839;45.186;5.720;2022-09-17T05:40:03;1.48;;;0.70;;
52974;SDS011;38839;45.186;5.720;2022-09-17T05:42:30;2.22;;;0.90;;
52974;SDS011;38839;45.186;5.720;2022-09-17T05:44:56;2.92;;;1.00;;
52974;SDS011;38839;45.186;5.720;2022-09-17T05:47:21;1.60;;;0.88;;
52974;SDS011;38839;45.186;5.720;2022-09-17T05:49:47;2.58;;;0.98;;
52974;SDS011;38839;45.186;5.720;2022-09-17T05:52:12;2.22;;;0.98;;
52974;SDS011;38839;45.186;5.720;2022-09-17T05:54:37;2.70;;;1.00;;
52974;SDS011;38839;45.186;5.720;2022-09-17T05:57:03;1.55;;;0.95;;
52974;SDS011;38839;45.186;5.720;2022-09-17T05:59:29;0.73;;;0.70;;
52974;SDS011;38839;45.186;5.720;2022-09-17T06:01:55;1.70;;;0.85;;
52974;SDS011;38839;45.186;5.720;2022-09-17T06:04:21;1.10;;;0.90;;
52974;SDS011;38839;45.186;5.720;2022-09-17T06:06:46;1.55;;;0.90;;
52974;SDS011;38839;45.186;5.720;2022-09-17T06:09:11;2.70;;;0.90;;
52974;SDS011;38839;45.186;5.720;2022-09-17T06:11:37;2.25;;;0.80;;
52974;SDS011;38839;45.186;5.720;2022-09-17T06:14:03;1.60;;;0.90;;
52974;SDS011;38839;45.186;5.720;2022-09-17T06:16:28;1.80;;;0.80;;
52974;SDS011;38839;45.186;5.720;2022-09-17T06:18:54;2.90;;;0.90;;
52974;SDS011;38839;45.186;5.720;2022-09-17T06:21:20;1.27;;;0.63;;
52974;SDS011;38839;45.186;5.720;2022-09-17T06:23:46;2.88;;;0.88;;
52974;SDS011;38839;45.186;5.720;2022-09-17T06:26:12;3.15;;;0.80;;
52974;SDS011;38839;45.186;5.720;2022-09-17T06:28:38;4.72;;;1.10;;
52974;SDS011;38839;45.186;5.720;2022-09-17T06:31:04;2.53;;;0.98;;
52974;SDS011;38839;45.186;5.720;2022-09-17T06:33:31;1.80;;;0.80;;
52974;SDS011;38839;45.186;5.720;2022-09-17T06:36:00;1.50;;;0.80;;
52974;SDS011;38839;45.186;5.720;2022-09-17T06:38:28;1.65;;;1.10;;
52974;SDS011;38839;45.186;5.720;2022-09-17T06:40:55;2.90;;;0.77;;
52974;SDS011;38839;45.186;5.720;2022-09-17T06:43:21;3.33;;;0.82;;
52974;SDS011;38839;45.186;5.720;2022-09-17T06:45:57;3.28;;;0.52;;
52974;SDS011;38839;45.186;5.720;2022-09-17T06:48:25;3.08;;;0.80;;
52974;SDS011;38839;45.186;5.720;2022-09-17T06:50:51;2.45;;;0.63;;
52974;SDS011;38839;45.186;5.720;2022-09-17T06:53:18;2.90;;;0.80;;
52974;SDS011;38839;45.186;5.720;2022-09-17T06:58:13;1.10;;;0.80;;
52974;SDS011;38839;45.186;5.720;2022-09-17T07:00:39;1.40;;;0.80;;
52974;SDS011;38839;45.186;5.720;2022-09-17T07:03:04;3.42;;;0.80;;
52974;SDS011;38839;45.186;5.720;2022-09-17T07:05:30;0.88;;;0.75;;
52974;SDS011;38839;45.186;5.720;2022-09-17T07:07:59;1.15;;;0.68;;
52974;SDS011;38839;45.186;5.720;2022-09-17T07:10:25;1.93;;;0.80;;
52974;SDS011;38839;45.186;5.720;2022-09-17T07:12:51;0.55;;;0.55;;
52974;SDS011;38839;45.186;5.720;2022-09-17T07:15:17;2.88;;;0.50;;
52974;SDS011;38839;45.186;5.720;2022-09-17T07:17:43;1.27;;;0.65;;
52974;SDS011;38839;45.186;5.720;2022-09-17T07:20:09;2.15;;;0.60;;
52974;SDS011;38839;45.186;5.720;2022-09-17T07:22:35;1.20;;;0.68;;
52974;SDS011;38839;45.186;5.720;2022-09-17T07:25:01;0.80;;;0.60;;
52974;SDS011;38839;45.186;5.720;2022-09-17T07:27:27;1.05;;;0.60;;
52974;SDS011;38839;45.186;5.720;2022-09-17T07:29:53;1.08;;;0.70;;
52974;SDS011;38839;45.186;5.720;2022-09-17T07:32:18;1.80;;;0.93;;
52974;SDS011;38839;45.186;5.720;2022-09-17T07:34:46;1.65;;;0.68;;
52974;SDS011;38839;45.186;5.720;2022-09-17T07:37:11;2.65;;;0.70;;
52974;SDS011;38839;45.186;5.720;2022-09-17T07:39:36;1.38;;;0.60;;
52974;SDS011;38839;45.186;5.720;2022-09-17T07:42:02;3.17;;;0.75;;
52974;SDS011;38839;45.186;5.720;2022-09-17T07:44:28;2.40;;;0.70;;
52974;SDS011;38839;45.186;5.720;2022-09-17T07:46:54;2.42;;;0.80;;
52974;SDS011;38839;45.186;5.720;2022-09-17T07:49:19;3.67;;;0.60;;
52974;SDS011;38839;45.186;5.720;2022-09-17T07:51:45;0.75;;;0.55;;
52974;SDS011;38839;45.186;5.720;2022-09-17T07:54:10;2.30;;;0.77;;
52974;SDS011;38839;45.186;5.720;2022-09-17T07:56:36;2.08;;;0.70;;
52974;SDS011;38839;45.186;5.720;2022-09-17T07:59:01;1.45;;;0.68;;
52974;SDS011;38839;45.186;5.720;2022-09-17T08:01:27;4.35;;;0.60;;
52974;SDS011;38839;45.186;5.720;2022-09-17T08:03:53;2.70;;;0.80;;
52974;SDS011;38839;45.186;5.720;2022-09-17T08:06:20;4.32;;;0.85;;
52974;SDS011;38839;45.186;5.720;2022-09-17T08:08:49;1.92;;;0.65;;
52974;SDS011;38839;45.186;5.720;2022-09-17T08:11:16;2.70;;;0.60;;
52974;SDS011;38839;45.186;5.720;2022-09-17T08:13:46;1.13;;;0.60;;
52974;SDS011;38839;45.186;5.720;2022-09-17T08:16:13;0.80;;;0.70;;
52974;SDS011;38839;45.186;5.720;2022-09-17T08:18:39;1.73;;;0.50;;
52974;SDS011;38839;45.186;5.720;2022-09-17T08:21:06;1.95;;;0.70;;
52974;SDS011;38839;45.186;5.720;2022-09-17T08:23:34;1.55;;;0.57;;
52974;SDS011;38839;45.186;5.720;2022-09-17T08:26:01;1.10;;;0.60;;
52974;SDS011;38839;45.186;5.720;2022-09-17T08:28:28;2.03;;;0.90;;
52974;SDS011;38839;45.186;5.720;2022-09-17T08:30:59;1.10;;;0.45;;
52974;SDS011;38839;45.186;5.720;2022-09-17T08:33:31;3.33;;;0.63;;
52974;SDS011;38839;45.186;5.720;2022-09-17T08:35:57;0.82;;;0.57;;
52974;SDS011;38839;45.186;5.720;2022-09-17T08:38:25;0.98;;;0.63;;
52974;SDS011;38839;45.186;5.720;2022-09-17T08:46:01;1.70;;;0.80;;
52974;SDS011;38839;45.186;5.720;2022-09-17T08:48:29;3.00;;;0.70;;
52974;SDS011;38839;45.186;5.720;2022-09-17T08:50:58;2.13;;;0.40;;
52974;SDS011;38839;45.186;5.720;2022-09-17T08:53:27;2.05;;;0.70;;
52974;SDS011;38839;45.186;5.720;2022-09-17T08:56:08;2.28;;;0.50;;
52974;SDS011;38839;45.186;5.720;2022-09-17T09:06:26;0.55;;;0.50;;
52974;SDS011;38839;45.186;5.720;2022-09-17T09:09:04;1.40;;;0.50;;
52974;SDS011;38839;45.186;5.720;2022-09-17T09:11:36;2.97;;;0.40;;
52974;SDS011;38839;45.186;5.720;2022-09-17T09:16:52;0.90;;;0.45;;
52974;SDS011;38839;45.186;5.720;2022-09-17T09:19:20;1.42;;;0.47;;
52974;SDS011;38839;45.186;5.720;2022-09-17T09:22:04;0.30;;;0.30;;
52974;SDS011;38839;45.186;5.720;2022-09-17T09:24:40;0.98;;;0.40;;
52974;SDS011;38839;45.186;5.720;2022-09-17T09:27:16;1.38;;;0.50;;
52974;SDS011;38839;45.186;5.720;2022-09-17T09:35:18;0.70;;;0.50;;
52974;SDS011;38839;45.186;5.720;2022-09-17T09:43:35;0.60;;;0.40;;
52974;SDS011;38839;45.186;5.720;2022-09-17T09:51:28;2.40;;;0.50;;
52974;SDS011;38839;45.186;5.720;2022-09-17T09:54:44;0.80;;;0.35;;
52974;SDS011;38839;45.186;5.720;2022-09-17T09:57:42;1.33;;;0.40;;
52974;SDS011;38839;45.186;5.720;2022-09-17T10:00:27;0.68;;;0.40;;
52974;SDS011;38839;45.186;5.720;2022-09-17T10:03:39;2.38;;;0.40;;
52974;SDS011;38839;45.186;5.720;2022-09-17T10:05:56;0.70;;;0.40;;
52974;SDS011;38839;45.186;5.720;2022-09-17T10:08:23;4.78;;;0.52;;
52974;SDS011;38839;45.186;5.720;2022-09-17T10:10:56;1.13;;;0.43;;
52974;SDS011;38839;45.186;5.720;2022-09-17T10:13:25;0.52;;;0.43;;
52974;SDS011;38839;45.186;5.720;2022-09-17T10:15:51;1.73;;;0.38;;
52974;SDS011;38839;45.186;5.720;2022-09-17T10:18:17;1.13;;;0.40;;
52974;SDS011;38839;45.186;5.720;2022-09-17T10:20:48;2.10;;;0.75;;
52974;SDS011;38839;45.186;5.720;2022-09-17T10:23:18;0.30;;;0.30;;
52974;SDS011;38839;45.186;5.720;2022-09-17T10:25:46;1.70;;;0.50;;
52974;SDS011;38839;45.186;5.720;2022-09-17T10:28:29;2.03;;;0.57;;
52974;SDS011;38839;45.186;5.720;2022-09-17T10:30:59;0.70;;;0.47;;
52974;SDS011;38839;45.186;5.720;2022-09-17T10:33:28;0.50;;;0.50;;
52974;SDS011;38839;45.186;5.720;2022-09-17T10:35:56;0.55;;;0.35;;
52974;SDS011;38839;45.186;5.720;2022-09-17T10:38:43;1.20;;;0.40;;
52974;SDS011;38839;45.186;5.720;2022-09-17T10:41:14;2.38;;;0.22;;
52974;SDS011;38839;45.186;5.720;2022-09-17T10:43:40;0.75;;;0.30;;
52974;SDS011;38839;45.186;5.720;2022-09-17T10:46:25;0.85;;;0.50;;
52974;SDS011;38839;45.186;5.720;2022-09-17T10:49:17;0.50;;;0.40;;
52974;SDS011;38839;45.186;5.720;2022-09-17T10:52:13;1.33;;;0.70;;
52974;SDS011;38839;45.186;5.720;2022-09-17T10:57:29;0.30;;;0.30;;
52974;SDS011;38839;45.186;5.720;2022-09-17T11:00:06;2.05;;;0.50;;
52974;SDS011;38839;45.186;5.720;2022-09-17T11:02:50;1.02;;;0.40;;
52974;SDS011;38839;45.186;5.720;2022-09-17T11:08:10;0.52;;;0.40;;
52974;SDS011;38839;45.186;5.720;2022-09-17T11:18:56;0.85;;;0.35;;
52974;SDS011;38839;45.186;5.720;2022-09-17T11:21:45;0.68;;;0.40;;
52974;SDS011;38839;45.186;5.720;2022-09-17T11:26:42;1.40;;;0.70;;
52974;SDS011;38839;45.186;5.720;2022-09-17T11:32:06;0.98;;;0.60;;
52974;SDS011;38839;45.186;5.720;2022-09-17T11:34:49;1.60;;;0.60;;
52974;SDS011;38839;45.186;5.720;2022-09-17T11:37:42;2.05;;;0.60;;
52974;SDS011;38839;45.186;5.720;2022-09-17T11:45:18;0.82;;;0.30;;
52974;SDS011;38839;45.186;5.720;2022-09-17T11:47:49;0.40;;;0.30;;
52974;SDS011;38839;45.186;5.720;2022-09-17T11:50:27;2.83;;;0.60;;
52974;SDS011;38839;45.186;5.720;2022-09-17T12:01:17;1.85;;;0.50;;
52974;SDS011;38839;45.186;5.720;2022-09-17T12:07:16;0.40;;;0.38;;
52974;SDS011;38839;45.186;5.720;2022-09-17T12:09:58;1.20;;;0.50;;
52974;SDS011;38839;45.186;5.720;2022-09-17T12:12:33;0.40;;;0.30;;
52974;SDS011;38839;45.186;5.720;2022-09-17T12:15:12;0.65;;;0.32;;
52974;SDS011;38839;45.186;5.720;2022-09-17T12:17:50;2.80;;;0.38;;
52974;SDS011;38839;45.186;5.720;2022-09-17T12:20:26;2.08;;;0.40;;
52974;SDS011;38839;45.186;5.720;2022-09-17T12:22:56;1.30;;;0.90;;
52974;SDS011;38839;45.186;5.720;2022-09-17T12:25:28;0.55;;;0.28;;
52974;SDS011;38839;45.186;5.720;2022-09-17T12:28:08;1.63;;;0.40;;
52974;SDS011;38839;45.186;5.720;2022-09-17T12:30:43;2.30;;;0.40;;
52974;SDS011;38839;45.186;5.720;2022-09-17T12:33:20;2.37;;;0.50;;
52974;SDS011;38839;45.186;5.720;2022-09-17T12:41:25;1.27;;;0.43;;
52974;SDS011;38839;45.186;5.720;2022-09-17T12:52:19;0.75;;;0.20;;
52974;SDS011;38839;45.186;5.720;2022-09-17T12:57:37;0.73;;;0.30;;
52974;SDS011;38839;45.186;5.720;2022-09-17T13:00:07;1.80;;;0.20;;
52974;SDS011;38839;45.186;5.720;2022-09-17T13:02:37;0.15;;;0.15;;
52974;SDS011;38839;45.186;5.720;2022-09-17T13:16:22;0.35;;;0.22;;
52974;SDS011;38839;45.186;5.720;2022-09-17T13:21:54;0.80;;;0.20;;
52974;SDS011;38839;45.186;5.720;2022-09-17T13:24:25;0.50;;;0.30;;
52974;SDS011;38839;45.186;5.720;2022-09-17T13:26:55;0.30;;;0.30;;
52974;SDS011;38839;45.186;5.720;2022-09-17T13:40:23;2.40;;;0.22;;
52974;SDS011;38839;45.186;5.720;2022-09-17T13:42:52;0.90;;;0.40;;
52974;SDS011;38839;45.186;5.720;2022-09-17T13:45:20;0.67;;;0.20;;
52974;SDS011;38839;45.186;5.720;2022-09-17T13:48:03;2.45;;;0.30;;
52974;SDS011;38839;45.186;5.720;2022-09-17T13:50:32;1.00;;;0.30;;
52974;SDS011;38839;45.186;5.720;2022-09-17T14:05:52;0.70;;;0.32;;
52974;SDS011;38839;45.186;5.720;2022-09-17T14:08:26;2.53;;;0.30;;
52974;SDS011;38839;45.186;5.720;2022-09-17T14:10:59;0.30;;;0.20;;
52974;SDS011;38839;45.186;5.720;2022-09-17T14:13:27;0.50;;;0.20;;
52974;SDS011;38839;45.186;5.720;2022-09-17T14:24:37;0.30;;;0.22;;
52974;SDS011;38839;45.186;5.720;2022-09-17T14:27:11;2.22;;;0.68;;
52974;SDS011;38839;45.186;5.720;2022-09-17T14:32:30;0.90;;;0.30;;
52974;SDS011;38839;45.186;5.720;2022-09-17T14:35:11;0.75;;;0.40;;
52974;SDS011;38839;45.186;5.720;2022-09-17T14:37:41;0.80;;;0.30;;
52974;SDS011;38839;45.186;5.720;2022-09-17T14:42:38;2.15;;;0.30;;
52974;SDS011;38839;45.186;5.720;2022-09-17T14:45:06;0.20;;;0.20;;
52974;SDS011;38839;45.186;5.720;2022-09-17T14:47:38;0.20;;;0.20;;
52974;SDS011;38839;45.186;5.720;2022-09-17T14:50:19;0.80;;;0.30;;
52974;SDS011;38839;45.186;5.720;2022-09-17T14:52:51;0.28;;;0.13;;
52974;SDS011;38839;45.186;5.720;2022-09-17T14:55:19;1.10;;;0.28;;
52974;SDS011;38839;45.186;5.720;2022-09-17T14:57:57;1.20;;;0.38;;
52974;SDS011;38839;45.186;5.720;2022-09-17T15:00:33;1.48;;;0.40;;
52974;SDS011;38839;45.186;5.720;2022-09-17T15:03:01;0.20;;;0.20;;
52974;SDS011;38839;45.186;5.720;2022-09-17T15:05:32;1.95;;;0.28;;
52974;SDS011;38839;45.186;5.720;2022-09-17T15:14:06;1.67;;;0.35;;
52974;SDS011;38839;45.186;5.720;2022-09-17T15:43:36;1.27;;;0.35;;
52974;SDS011;38839;45.186;5.720;2022-09-17T15:48:52;0.75;;;0.25;;
52974;SDS011;38839;45.186;5.720;2022-09-17T15:51:24;1.00;;;0.28;;
52974;SDS011;38839;45.186;5.720;2022-09-17T15:53:56;1.48;;;0.47;;
52974;SDS011;38839;45.186;5.720;2022-09-17T15:56:35;0.55;;;0.40;;
52974;SDS011;38839;45.186;5.720;2022-09-17T15:59:04;1.48;;;0.35;;
52974;SDS011;38839;45.186;5.720;2022-09-17T16:04:21;1.48;;;0.43;;
52974;SDS011;38839;45.186;5.720;2022-09-17T16:14:29;2.25;;;0.20;;
52974;SDS011;38839;45.186;5.720;2022-09-17T16:16:54;1.40;;;0.40;;
52974;SDS011;38839;45.186;5.720;2022-09-17T16:19:20;0.30;;;0.30;;
52974;SDS011;38839;45.186;5.720;2022-09-17T16:21:46;0.73;;;0.30;;
52974;SDS011;38839;45.186;5.720;2022-09-17T16:24:11;0.77;;;0.40;;
52974;SDS011;38839;45.186;5.720;2022-09-17T16:26:37;8.30;;;0.70;;
52974;SDS011;38839;45.186;5.720;2022-09-17T16:29:13;0.70;;;0.30;;
52974;SDS011;38839;45.186;5.720;2022-09-17T16:31:41;0.30;;;0.30;;
52974;SDS011;38839;45.186;5.720;2022-09-17T16:34:06;0.22;;;0.20;;
52974;SDS011;38839;45.186;5.720;2022-09-17T16:36:31;1.00;;;0.38;;
52974;SDS011;38839;45.186;5.720;2022-09-17T16:38:57;0.52;;;0.20;;
52974;SDS011;38839;45.186;5.720;2022-09-17T16:41:23;0.85;;;0.32;;
52974;SDS011;38839;45.186;5.720;2022-09-17T16:43:48;0.25;;;0.25;;
52974;SDS011;38839;45.186;5.720;2022-09-17T16:46:14;1.90;;;0.40;;
52974;SDS011;38839;45.186;5.720;2022-09-17T16:48:39;3.58;;;0.50;;
52974;SDS011;38839;45.186;5.720;2022-09-17T16:51:10;1.98;;;0.55;;
52974;SDS011;38839;45.186;5.720;2022-09-17T16:56:06;1.75;;;0.50;;
52974;SDS011;38839;45.186;5.720;2022-09-17T16:58:36;0.60;;;0.25;;
52974;SDS011;38839;45.186;5.720;2022-09-17T17:01:05;0.63;;;0.40;;
52974;SDS011;38839;45.186;5.720;2022-09-17T17:03:32;1.33;;;0.38;;
52974;SDS011;38839;45.186;5.720;2022-09-17T17:05:57;1.15;;;0.40;;
52974;SDS011;38839;45.186;5.720;2022-09-17T17:08:23;1.83;;;0.45;;
52974;SDS011;38839;45.186;5.720;2022-09-17T17:10:48;0.88;;;0.50;;
52974;SDS011;38839;45.186;5.720;2022-09-17T17:13:14;2.75;;;0.57;;
52974;SDS011;38839;45.186;5.720;2022-09-17T17:15:40;1.65;;;0.45;;
52974;SDS011;38839;45.186;5.720;2022-09-17T17:18:05;2.75;;;0.60;;
52974;SDS011;38839;45.186;5.720;2022-09-17T17:20:33;1.20;;;0.50;;
52974;SDS011;38839;45.186;5.720;2022-09-17T17:22:59;0.57;;;0.30;;
52974;SDS011;38839;45.186;5.720;2022-09-17T17:25:24;1.30;;;0.40;;
52974;SDS011;38839;45.186;5.720;2022-09-17T17:27:51;1.48;;;0.35;;
52974;SDS011;38839;45.186;5.720;2022-09-17T17:30:16;2.70;;;0.30;;
52974;SDS011;38839;45.186;5.720;2022-09-17T17:32:49;1.88;;;0.35;;
52974;SDS011;38839;45.186;5.720;2022-09-17T17:35:16;0.95;;;0.40;;
52974;SDS011;38839;45.186;5.720;2022-09-17T17:37:42;2.20;;;0.50;;
52974;SDS011;38839;45.186;5.720;2022-09-17T17:40:08;3.33;;;0.40;;
52974;SDS011;38839;45.186;5.720;2022-09-17T17:42:34;2.15;;;0.55;;
52974;SDS011;38839;45.186;5.720;2022-09-17T17:45:04;1.58;;;0.47;;
52974;SDS011;38839;45.186;5.720;2022-09-17T17:47:30;1.55;;;0.60;;
52974;SDS011;38839;45.186;5.720;2022-09-17T17:49:56;0.65;;;0.50;;
52974;SDS011;38839;45.186;5.720;2022-09-17T17:52:21;1.67;;;0.40;;
52974;SDS011;38839;45.186;5.720;2022-09-17T17:54:46;1.08;;;0.40;;
52974;SDS011;38839;45.186;5.720;2022-09-17T17:57:12;1.42;;;0.60;;
52974;SDS011;38839;45.186;5.720;2022-09-17T17:59:37;1.92;;;0.55;;
52974;SDS011;38839;45.186;5.720;2022-09-17T18:02:03;1.65;;;0.50;;
52974;SDS011;38839;45.186;5.720;2022-09-17T18:04:29;1.75;;;0.40;;
52974;SDS011;38839;45.186;5.720;2022-09-17T18:06:54;1.30;;;0.50;;
52974;SDS011;38839;45.186;5.720;2022-09-17T18:09:19;1.95;;;0.55;;
52974;SDS011;38839;45.186;5.720;2022-09-17T18:11:45;0.57;;;0.40;;
52974;SDS011;38839;45.186;5.720;2022-09-17T18:14:13;2.65;;;0.45;;
52974;SDS011;38839;45.186;5.720;2022-09-17T18:16:39;2.13;;;0.67;;
52974;SDS011;38839;45.186;5.720;2022-09-17T18:19:04;3.72;;;0.40;;
52974;SDS011;38839;45.186;5.720;2022-09-17T18:21:30;1.45;;;0.60;;
52974;SDS011;38839;45.186;5.720;2022-09-17T18:23:56;0.82;;;0.40;;
52974;SDS011;38839;45.186;5.720;2022-09-17T18:26:23;1.05;;;0.77;;
52974;SDS011;38839;45.186;5.720;2022-09-17T18:28:50;0.85;;;0.75;;
52974;SDS011;38839;45.186;5.720;2022-09-17T18:31:29;1.63;;;0.65;;
52974;SDS011;38839;45.186;5.720;2022-09-17T18:33:56;1.45;;;0.52;;
52974;SDS011;38839;45.186;5.720;2022-09-17T18:36:27;3.42;;;0.65;;
52974;SDS011;38839;45.186;5.720;2022-09-17T18:38:54;3.83;;;0.80;;
52974;SDS011;38839;45.186;5.720;2022-09-17T18:41:25;3.63;;;1.00;;
52974;SDS011;38839;45.186;5.720;2022-09-17T18:43:51;2.92;;;0.65;;
52974;SDS011;38839;45.186;5.720;2022-09-17T18:46:17;2.45;;;0.52;;
52974;SDS011;38839;45.186;5.720;2022-09-17T18:48:45;1.88;;;0.70;;